Time;durP1;ratioP1;P1;durP2;ratioP2;P2;SDS_P1;SDS_P2;PMS_P1;PMS_P2;Temp;Humidity;BMP_temperature;BMP_pressure;BME280_temperature;BME280_humidity;BME280_pressure;Samples;Min_cycle;Max_cycle;Signal;HPM_P1;HPM_P2
2023/08/28 00:02:51;;;;;;;0.20;0.20;;;;;;;;;;10386552;28;20704;-69
2023/08/28 00:07:52;;;;;;;1.75;0.40;;;;;;;;;;10386137;28;20223;-71
2023/08/28 00:12:53;;;;;;;1.55;0.47;;;;;;;;;;10382444;28;20757;-69
2023/08/28 00:17:54;;;;;;;1.08;0.30;;;;;;;;;;10381655;28;20231;-69
2023/08/28 00:22:55;;;;;;;0.30;0.30;;;;;;;;;;10381566;28;20219;-68
2023/08/28 00:27:56;;;;;;;0.38;0.38;;;;;;;;;;10378754;28;20227;-71
2023/08/28 00:32:57;;;;;;;1.73;0.40;;;;;;;;;;10381231;28;20303;-69
2023/08/28 00:37:58;;;;;;;0.52;0.52;;;;;;;;;;10364477;28;20207;-68
2023/08/28 00:43:00;;;;;;;0.65;0.50;;;;;;;;;;10370042;28;20216;-72
2023/08/28 00:48:02;;;;;;;1.90;0.20;;;;;;;;;;10368557;28;20594;-71
2023/08/28 00:53:04;;;;;;;0.40;0.40;;;;;;;;;;10379869;28;20638;-70
2023/08/28 00:58:05;;;;;;;1.08;0.40;;;;;;;;;;10386892;28;20717;-71
2023/08/28 01:03:06;;;;;;;0.50;0.50;;;;;;;;;;10386671;28;20265;-72
2023/08/28 01:08:14;;;;;;;0.47;0.40;;;;;;;;;;10383054;28;20223;-69
2023/08/28 01:13:18;;;;;;;2.78;0.50;;;;;;;;;;10382461;28;20227;-70
2023/08/28 01:18:20;;;;;;;0.25;0.25;;;;;;;;;;10381726;28;20732;-74
2023/08/28 01:23:28;;;;;;;0.60;0.52;;;;;;;;;;10386311;28;20208;-72
2023/08/28 01:28:30;;;;;;;0.40;0.40;;;;;;;;;;10378730;28;20248;-70
2023/08/28 01:33:32;;;;;;;0.30;0.30;;;;;;;;;;10371082;28;20211;-73
2023/08/28 01:38:39;;;;;;;2.28;0.57;;;;;;;;;;10379896;28;20216;-72
2023/08/28 01:43:45;;;;;;;0.45;0.45;;;;;;;;;;10379413;28;20219;-71
2023/08/28 01:48:52;;;;;;;1.42;0.70;;;;;;;;;;10380917;28;20722;-73
2023/08/28 01:53:53;;;;;;;0.52;0.52;;;;;;;;;;10389152;28;20318;-70
2023/08/28 01:58:56;;;;;;;0.45;0.45;;;;;;;;;;10379438;28;20224;-71
2023/08/28 02:03:57;;;;;;;0.60;0.60;;;;;;;;;;10380915;28;20216;-71
2023/08/28 02:08:58;;;;;;;0.77;0.77;;;;;;;;;;10363665;28;20578;-71
2023/08/28 02:14:01;;;;;;;0.95;0.95;;;;;;;;;;10391461;28;20241;-73
2023/08/28 02:19:02;;;;;;;1.23;0.90;;;;;;;;;;10402487;28;20462;-73
2023/08/28 02:24:04;;;;;;;1.10;1.10;;;;;;;;;;10387540;28;20334;-72
2023/08/28 02:29:05;;;;;;;0.88;0.88;;;;;;;;;;10389073;28;20229;-72
2023/08/28 02:34:07;;;;;;;1.63;1.00;;;;;;;;;;10388519;28;20207;-72
2023/08/28 02:39:08;;;;;;;1.15;0.95;;;;;;;;;;10406053;28;20211;-71
2023/08/28 02:44:09;;;;;;;2.08;0.85;;;;;;;;;;10415285;28;20215;-73
2023/08/28 02:49:10;;;;;;;0.73;0.65;;;;;;;;;;10413153;28;20225;-72
2023/08/28 02:54:11;;;;;;;1.83;0.95;;;;;;;;;;10418713;28;20214;-71
2023/08/28 02:59:12;;;;;;;0.93;0.93;;;;;;;;;;10412639;28;20219;-69
2023/08/28 03:04:13;;;;;;;3.42;1.50;;;;;;;;;;10395246;28;20457;-72
2023/08/28 03:09:14;;;;;;;1.73;1.13;;;;;;;;;;10407552;28;20212;-70
2023/08/28 03:14:15;;;;;;;0.90;0.90;;;;;;;;;;10396082;28;20652;-71
2023/08/28 03:19:17;;;;;;;1.67;1.60;;;;;;;;;;10382706;28;20208;-73
2023/08/28 03:24:18;;;;;;;1.45;1.40;;;;;;;;;;10387458;28;20207;-70
2023/08/28 03:29:19;;;;;;;1.95;1.85;;;;;;;;;;10387890;28;20270;-73
2023/08/28 03:34:20;;;;;;;2.03;1.92;;;;;;;;;;10387462;28;20279;-70
2023/08/28 03:39:21;;;;;;;1.55;1.52;;;;;;;;;;10369165;28;20694;-69
2023/08/28 03:44:23;;;;;;;1.50;1.40;;;;;;;;;;10421602;28;20575;-70
2023/08/28 03:49:26;;;;;;;1.88;1.77;;;;;;;;;;10410353;28;20756;-74
2023/08/28 03:54:29;;;;;;;1.55;1.40;;;;;;;;;;10419148;28;20273;-74
2023/08/28 03:59:30;;;;;;;2.40;1.55;;;;;;;;;;10406685;28;20630;-72
2023/08/28 04:04:31;;;;;;;1.42;1.42;;;;;;;;;;10427914;28;20212;-72
2023/08/28 04:09:32;;;;;;;1.58;1.58;;;;;;;;;;10426937;28;20215;-70
2023/08/28 04:14:33;;;;;;;1.13;1.13;;;;;;;;;;10416181;28;20226;-71
2023/08/28 04:19:35;;;;;;;4.63;1.38;;;;;;;;;;10369790;28;20227;-71
2023/08/28 04:24:36;;;;;;;1.45;1.35;;;;;;;;;;10353124;28;20258;-70
2023/08/28 04:29:38;;;;;;;2.10;2.00;;;;;;;;;;10352898;28;20222;-72
2023/08/28 04:34:39;;;;;;;1.15;1.10;;;;;;;;;;10370822;28;20215;-71
2023/08/28 04:39:40;;;;;;;1.85;1.75;;;;;;;;;;10350745;28;20207;-71
2023/08/28 04:44:41;;;;;;;2.78;1.38;;;;;;;;;;10354368;28;20216;-71
2023/08/28 04:49:42;;;;;;;1.70;1.70;;;;;;;;;;10353071;28;20243;-70
2023/08/28 04:54:43;;;;;;;1.95;1.60;;;;;;;;;;10364842;28;20211;-76
2023/08/28 04:59:45;;;;;;;1.75;1.75;;;;;;;;;;10368074;28;20719;-71
2023/08/28 05:04:46;;;;;;;2.20;2.00;;;;;;;;;;10381433;28;20234;-72
2023/08/28 05:09:47;;;;;;;1.58;1.58;;;;;;;;;;10343873;28;20706;-73
2023/08/28 05:14:48;;;;;;;2.08;1.98;;;;;;;;;;10375327;28;20298;-72
2023/08/28 05:19:49;;;;;;;2.50;2.30;;;;;;;;;;10428887;28;20215;-74
2023/08/28 05:24:50;;;;;;;1.63;1.63;;;;;;;;;;10421687;28;20230;-70
2023/08/28 05:29:52;;;;;;;2.08;1.95;;;;;;;;;;10390955;28;20865;-75
2023/08/28 05:34:57;;;;;;;2.47;2.38;;;;;;;;;;10421991;28;20215;-71
2023/08/28 05:39:59;;;;;;;3.35;2.50;;;;;;;;;;10403849;28;20207;-70
2023/08/28 05:45:00;;;;;;;3.20;2.45;;;;;;;;;;10424010;28;20218;-72
2023/08/28 05:50:01;;;;;;;3.00;2.47;;;;;;;;;;10399742;28;20262;-71
2023/08/28 05:55:03;;;;;;;2.70;2.50;;;;;;;;;;10391102;28;20220;-71
2023/08/28 06:00:05;;;;;;;2.22;1.83;;;;;;;;;;10403046;28;20226;-68
2023/08/28 06:05:14;;;;;;;2.50;2.33;;;;;;;;;;10439292;28;20223;-70
2023/08/28 06:10:19;;;;;;;3.08;2.22;;;;;;;;;;10405980;28;20273;-75
2023/08/28 06:15:20;;;;;;;2.53;2.42;;;;;;;;;;10405055;28;20228;-73
2023/08/28 06:20:22;;;;;;;2.63;2.42;;;;;;;;;;10350088;28;20342;-70
2023/08/28 06:25:23;;;;;;;4.05;2.50;;;;;;;;;;10368038;28;20220;-71
2023/08/28 06:30:25;;;;;;;3.05;2.78;;;;;;;;;;10355184;28;20376;-70
2023/08/28 06:35:28;;;;;;;6.57;2.58;;;;;;;;;;10366070;28;20215;-72
2023/08/28 06:40:29;;;;;;;2.40;2.30;;;;;;;;;;10352982;28;20311;-69
2023/08/28 06:45:31;;;;;;;3.90;2.30;;;;;;;;;;10353574;28;20243;-71
2023/08/28 06:50:34;;;;;;;3.45;3.25;;;;;;;;;;10350922;28;20279;-70
2023/08/28 06:55:36;;;;;;;3.33;3.15;;;;;;;;;;10374359;28;20675;-71
2023/08/28 07:00:38;;;;;;;2.85;2.67;;;;;;;;;;10363000;28;20211;-71
2023/08/28 07:05:39;;;;;;;2.25;2.15;;;;;;;;;;10374025;28;20462;-73
2023/08/28 07:10:40;;;;;;;1.95;1.80;;;;;;;;;;10369191;28;20690;-74
2023/08/28 07:15:41;;;;;;;2.10;2.00;;;;;;;;;;10345774;28;20239;-70
2023/08/28 07:20:43;;;;;;;1.92;1.90;;;;;;;;;;10363339;28;20226;-73
2023/08/28 07:25:45;;;;;;;2.08;1.80;;;;;;;;;;10356416;28;20251;-73
2023/08/28 07:30:46;;;;;;;2.25;1.80;;;;;;;;;;10369916;28;20215;-72
2023/08/28 07:35:47;;;;;;;2.45;1.60;;;;;;;;;;10389270;28;20258;-72
2023/08/28 07:40:48;;;;;;;4.05;1.92;;;;;;;;;;10375474;28;20409;-72
2023/08/28 07:45:49;;;;;;;1.60;1.60;;;;;;;;;;10359154;28;20220;-71
2023/08/28 07:50:51;;;;;;;1.83;1.73;;;;;;;;;;10354741;28;20226;-72
2023/08/28 07:55:52;;;;;;;2.17;1.90;;;;;;;;;;10369652;28;20212;-74
2023/08/28 08:00:53;;;;;;;2.22;1.70;;;;;;;;;;10354855;28;20221;-76
2023/08/28 08:05:54;;;;;;;1.50;1.40;;;;;;;;;;10352468;28;20215;-72
2023/08/28 08:10:55;;;;;;;9.65;2.03;;;;;;;;;;10375671;28;20211;-73
2023/08/28 08:15:57;;;;;;;1.55;1.55;;;;;;;;;;10368474;28;20219;-73
2023/08/28 08:20:59;;;;;;;1.67;1.63;;;;;;;;;;10370360;28;20261;-74
2023/08/28 08:26:00;;;;;;;1.40;1.40;;;;;;;;;;10385920;28;20281;-73
2023/08/28 08:31:01;;;;;;;2.75;1.52;;;;;;;;;;10352089;28;20215;-71
2023/08/28 08:36:02;;;;;;;1.15;1.15;;;;;;;;;;10349880;28;20220;-71
2023/08/28 08:41:03;;;;;;;0.90;0.90;;;;;;;;;;10365263;28;20432;-72
2023/08/28 08:46:05;;;;;;;0.95;0.95;;;;;;;;;;10369438;28;20258;-71
2023/08/28 08:51:07;;;;;;;3.70;1.30;;;;;;;;;;10371744;28;20366;-72
2023/08/28 08:56:11;;;;;;;1.73;0.90;;;;;;;;;;10365130;28;20242;-73
2023/08/28 09:01:13;;;;;;;0.90;0.90;;;;;;;;;;10342750;28;20212;-71
2023/08/28 09:06:15;;;;;;;1.67;0.70;;;;;;;;;;10367445;28;20246;-73
2023/08/28 09:11:16;;;;;;;1.88;0.77;;;;;;;;;;10356259;28;20294;-74
2023/08/28 09:16:20;;;;;;;0.68;0.68;;;;;;;;;;10380428;28;20309;-72
2023/08/28 09:21:21;;;;;;;2.67;1.10;;;;;;;;;;10368331;28;20585;-70
2023/08/28 09:26:23;;;;;;;0.40;0.40;;;;;;;;;;10364146;28;20215;-70
2023/08/28 09:31:34;;;;;;;3.03;0.90;;;;;;;;;;10367993;28;20668;-71
2023/08/28 09:36:40;;;;;;;1.38;0.93;;;;;;;;;;10351538;28;20215;-73
2023/08/28 09:41:44;;;;;;;0.82;0.82;;;;;;;;;;10385279;28;20374;-71
2023/08/28 09:46:46;;;;;;;0.80;0.80;;;;;;;;;;10343304;28;20733;-73
2023/08/28 09:51:51;;;;;;;1.65;0.80;;;;;;;;;;10367838;28;20215;-73
2023/08/28 09:56:52;;;;;;;0.70;0.70;;;;;;;;;;10363769;28;20617;-73
2023/08/28 10:01:53;;;;;;;0.35;0.30;;;;;;;;;;10365267;28;20204;-71
2023/08/28 10:06:57;;;;;;;0.40;0.40;;;;;;;;;;10349136;28;20216;-74
2023/08/28 10:12:00;;;;;;;2.08;0.20;;;;;;;;;;10350267;28;20246;-72
2023/08/28 10:17:04;;;;;;;0.30;0.30;;;;;;;;;;10351638;28;20238;-72
2023/08/28 10:22:08;;;;;;;1.75;0.13;;;;;;;;;;10349540;28;20219;-70
2023/08/28 10:27:11;;;;;;;0.40;0.20;;;;;;;;;;10383494;28;20269;-72
2023/08/28 10:32:12;;;;;;;0.20;0.20;;;;;;;;;;10363367;28;20211;-74
2023/08/28 10:37:13;;;;;;;0.20;0.20;;;;;;;;;;10362381;28;20323;-72
2023/08/28 10:42:17;;;;;;;1.73;0.40;;;;;;;;;;10348083;28;20207;-74
2023/08/28 10:47:19;;;;;;;4.97;0.30;;;;;;;;;;10365132;28;20360;-72
2023/08/28 10:52:20;;;;;;;0.22;0.22;;;;;;;;;;10358781;28;20242;-72
2023/08/28 10:57:21;;;;;;;0.57;0.30;;;;;;;;;;10347182;28;20224;-72
2023/08/28 11:02:22;;;;;;;0.32;0.32;;;;;;;;;;10354877;28;20204;-72
2023/08/28 11:07:24;;;;;;;0.10;0.10;;;;;;;;;;10353769;28;20771;-73
2023/08/28 11:12:25;;;;;;;1.55;0.30;;;;;;;;;;10356379;28;20245;-74
2023/08/28 11:17:26;;;;;;;1.75;0.20;;;;;;;;;;10398242;28;20219;-73
2023/08/28 11:22:35;;;;;;;0.20;0.20;;;;;;;;;;10426870;28;20386;-73
2023/08/28 11:27:49;;;;;;;0.20;0.20;;;;;;;;;;10410590;28;20310;-72
2023/08/28 11:32:51;;;;;;;0.20;0.20;;;;;;;;;;10425373;28;20211;-72
2023/08/28 11:37:53;;;;;;;0.98;0.28;;;;;;;;;;10425065;28;20242;-75
2023/08/28 11:43:06;;;;;;;0.22;0.20;;;;;;;;;;10435064;28;20216;-71
2023/08/28 11:48:07;;;;;;;0.65;0.20;;;;;;;;;;10425529;28;20226;-71
2023/08/28 11:53:08;;;;;;;0.30;0.30;;;;;;;;;;10423457;28;20215;-73
2023/08/28 11:58:09;;;;;;;0.20;0.20;;;;;;;;;;10409367;28;20362;-73
2023/08/28 12:03:17;;;;;;;0.20;0.20;;;;;;;;;;10425488;28;20215;-72
2023/08/28 12:08:18;;;;;;;0.73;0.45;;;;;;;;;;10410462;28;20250;-72
2023/08/28 12:13:22;;;;;;;0.20;0.20;;;;;;;;;;10432161;28;20265;-72
2023/08/28 12:18:23;;;;;;;0.10;0.10;;;;;;;;;;10389275;28;20219;-75
2023/08/28 12:23:24;;;;;;;1.00;0.22;;;;;;;;;;10389201;28;20211;-73
2023/08/28 12:28:26;;;;;;;0.20;0.20;;;;;;;;;;10335610;28;20818;-76
2023/08/28 12:33:27;;;;;;;0.20;0.20;;;;;;;;;;10333830;28;20234;-72
2023/08/28 12:38:28;;;;;;;0.20;0.20;;;;;;;;;;10347681;28;20208;-72
2023/08/28 12:43:35;;;;;;;0.28;0.20;;;;;;;;;;10328816;28;20215;-71
2023/08/28 12:48:36;;;;;;;0.32;0.20;;;;;;;;;;10319078;28;20220;-72
2023/08/28 12:53:38;;;;;;;1.08;0.20;;;;;;;;;;10346383;28;20674;-72
2023/08/28 12:58:39;;;;;;;0.20;0.20;;;;;;;;;;10312809;28;20596;-74
2023/08/28 13:03:42;;;;;;;0.35;0.20;;;;;;;;;;10328952;28;20207;-71
2023/08/28 13:08:43;;;;;;;0.20;0.20;;;;;;;;;;10336232;28;20228;-75
2023/08/28 13:13:44;;;;;;;0.20;0.20;;;;;;;;;;10327663;28;20324;-71
2023/08/28 13:18:45;;;;;;;1.80;0.10;;;;;;;;;;10366790;28;20509;-72
2023/08/28 13:23:50;;;;;;;0.20;0.20;;;;;;;;;;10370707;28;20212;-73
2023/08/28 13:28:52;;;;;;;0.40;0.20;;;;;;;;;;10381035;28;20227;-72
2023/08/28 13:33:53;;;;;;;0.30;0.10;;;;;;;;;;10384736;28;20207;-71
2023/08/28 13:38:54;;;;;;;1.08;0.20;;;;;;;;;;10382532;28;20287;-71
2023/08/28 13:43:55;;;;;;;0.10;0.10;;;;;;;;;;10401368;28;20244;-71
2023/08/28 13:48:56;;;;;;;0.10;0.10;;;;;;;;;;10425410;28;20218;-70
2023/08/28 13:53:57;;;;;;;0.10;0.10;;;;;;;;;;10423900;28;20817;-73
2023/08/28 13:58:58;;;;;;;0.20;0.20;;;;;;;;;;10405132;28;20221;-70
2023/08/28 14:03:59;;;;;;;1.00;0.13;;;;;;;;;;10405174;28;20203;-73
2023/08/28 14:09:00;;;;;;;0.20;0.20;;;;;;;;;;10424224;28;20220;-72
2023/08/28 14:14:02;;;;;;;0.40;0.20;;;;;;;;;;10424450;28;20219;-74
2023/08/28 14:19:04;;;;;;;0.88;0.20;;;;;;;;;;10424039;28;20630;-72
2023/08/28 14:24:06;;;;;;;0.20;0.20;;;;;;;;;;10429359;28;20328;-70
2023/08/28 14:29:07;;;;;;;0.10;0.10;;;;;;;;;;10429590;28;20254;-72
2023/08/28 14:34:08;;;;;;;0.13;0.13;;;;;;;;;;10421824;28;20217;-72
2023/08/28 14:39:09;;;;;;;0.20;0.20;;;;;;;;;;10426434;28;20221;-73
2023/08/28 14:44:10;;;;;;;0.20;0.20;;;;;;;;;;10414455;28;20573;-72
2023/08/28 14:49:11;;;;;;;2.05;0.20;;;;;;;;;;10432484;28;20218;-73
2023/08/28 14:54:12;;;;;;;0.57;0.30;;;;;;;;;;10412926;28;20213;-73
2023/08/28 14:59:14;;;;;;;0.10;0.10;;;;;;;;;;10429281;28;20747;-72
2023/08/28 15:04:15;;;;;;;0.57;0.10;;;;;;;;;;10434023;28;20218;-73
2023/08/28 15:09:16;;;;;;;0.20;0.10;;;;;;;;;;10432765;28;20218;-73
2023/08/28 15:14:17;;;;;;;0.17;0.17;;;;;;;;;;10429421;28;20346;-73
2023/08/28 15:19:18;;;;;;;0.65;0.10;;;;;;;;;;10435433;28;20210;-73
2023/08/28 15:24:19;;;;;;;0.20;0.20;;;;;;;;;;10431133;28;20264;-71
2023/08/28 15:29:21;;;;;;;0.17;0.17;;;;;;;;;;10430334;28;20650;-74
2023/08/28 15:34:25;;;;;;;0.10;0.10;;;;;;;;;;10413948;28;20709;-74
2023/08/28 15:39:26;;;;;;;0.20;0.20;;;;;;;;;;10427194;28;20214;-72
2023/08/28 15:44:27;;;;;;;0.15;0.15;;;;;;;;;;10416810;28;20218;-73
2023/08/28 15:49:28;;;;;;;0.20;0.20;;;;;;;;;;10429786;28;20569;-71
2023/08/28 15:54:30;;;;;;;0.20;0.20;;;;;;;;;;10428685;28;20626;-72
2023/08/28 15:59:33;;;;;;;1.10;0.20;;;;;;;;;;10411419;28;20686;-74
2023/08/28 16:04:34;;;;;;;1.08;0.20;;;;;;;;;;10428550;28;20203;-74
2023/08/28 16:09:35;;;;;;;0.20;0.20;;;;;;;;;;10431712;28;20704;-74
2023/08/28 16:14:36;;;;;;;0.20;0.10;;;;;;;;;;10424380;28;20488;-73
2023/08/28 16:19:37;;;;;;;0.20;0.20;;;;;;;;;;10411210;28;20218;-74
2023/08/28 16:24:39;;;;;;;0.20;0.20;;;;;;;;;;10413126;28;20217;-75
2023/08/28 16:29:40;;;;;;;0.22;0.20;;;;;;;;;;10436211;28;20257;-74
2023/08/28 16:34:41;;;;;;;0.20;0.20;;;;;;;;;;10413651;28;20207;-74
2023/08/28 16:39:43;;;;;;;0.43;0.30;;;;;;;;;;10428891;28;20222;-75
2023/08/28 16:44:44;;;;;;;0.20;0.20;;;;;;;;;;10426086;28;20477;-71
2023/08/28 16:49:45;;;;;;;0.20;0.20;;;;;;;;;;10406867;28;20763;-71
2023/08/28 16:54:46;;;;;;;0.20;0.20;;;;;;;;;;10425068;28;20313;-73
2023/08/28 16:59:47;;;;;;;0.30;0.30;;;;;;;;;;10425030;28;20708;-70
2023/08/28 17:04:48;;;;;;;3.03;0.28;;;;;;;;;;10427361;28;20281;-69
2023/08/28 17:09:49;;;;;;;0.20;0.20;;;;;;;;;;10406664;28;20243;-70
2023/08/28 17:14:51;;;;;;;0.20;0.20;;;;;;;;;;10409641;28;20368;-70
2023/08/28 17:19:52;;;;;;;0.10;0.10;;;;;;;;;;10424777;28;20206;-71
2023/08/28 17:24:53;;;;;;;0.20;0.20;;;;;;;;;;10423755;28;20427;-73
2023/08/28 17:29:54;;;;;;;0.20;0.20;;;;;;;;;;10424591;28;20207;-71
2023/08/28 17:34:55;;;;;;;0.20;0.20;;;;;;;;;;10400815;28;20768;-70
2023/08/28 17:39:56;;;;;;;0.20;0.20;;;;;;;;;;10420845;28;20215;-69
2023/08/28 17:44:57;;;;;;;0.10;0.10;;;;;;;;;;10417184;28;20693;-72
2023/08/28 17:49:58;;;;;;;0.32;0.32;;;;;;;;;;10404550;28;20215;-71
2023/08/28 17:54:59;;;;;;;1.02;0.20;;;;;;;;;;10420990;28;20206;-69
2023/08/28 18:00:00;;;;;;;0.20;0.20;;;;;;;;;;10408316;28;20218;-69
2023/08/28 18:05:01;;;;;;;0.10;0.10;;;;;;;;;;10418785;28;20215;-69
2023/08/28 18:10:06;;;;;;;0.20;0.20;;;;;;;;;;10397990;28;20234;-70
2023/08/28 18:15:07;;;;;;;0.20;0.20;;;;;;;;;;10423076;28;20230;-71
2023/08/28 18:20:08;;;;;;;0.22;0.22;;;;;;;;;;10402275;28;20823;-69
2023/08/28 18:25:09;;;;;;;0.20;0.20;;;;;;;;;;10417805;28;20282;-71
2023/08/28 18:30:10;;;;;;;0.17;0.17;;;;;;;;;;10401011;28;20265;-71
2023/08/28 18:35:12;;;;;;;0.20;0.20;;;;;;;;;;10422894;28;20700;-73
2023/08/28 18:40:13;;;;;;;0.35;0.28;;;;;;;;;;10421838;28;20242;-71
2023/08/28 18:45:14;;;;;;;0.20;0.20;;;;;;;;;;10425355;28;20721;-71
2023/08/28 18:50:16;;;;;;;0.10;0.10;;;;;;;;;;10405039;28;20464;-71
2023/08/28 18:55:17;;;;;;;1.83;0.22;;;;;;;;;;10411163;28;20261;-76
2023/08/28 19:00:18;;;;;;;0.20;0.20;;;;;;;;;;10407068;28;20623;-73
2023/08/28 19:05:20;;;;;;;2.25;0.20;;;;;;;;;;10416871;28;20242;-70
2023/08/28 19:10:22;;;;;;;0.20;0.20;;;;;;;;;;10417299;28;20909;-70
2023/08/28 19:15:23;;;;;;;0.30;0.30;;;;;;;;;;10416878;28;20223;-73
2023/08/28 19:20:24;;;;;;;0.22;0.22;;;;;;;;;;10417501;28;20289;-68
2023/08/28 19:25:25;;;;;;;0.20;0.20;;;;;;;;;;10429164;28;20237;-72
2023/08/28 19:30:27;;;;;;;0.35;0.20;;;;;;;;;;10428515;28;20824;-70
2023/08/28 19:35:28;;;;;;;0.25;0.25;;;;;;;;;;10425199;28;20218;-69
2023/08/28 19:40:29;;;;;;;0.22;0.22;;;;;;;;;;10428672;28;20281;-73
2023/08/28 19:45:30;;;;;;;0.20;0.20;;;;;;;;;;10423377;28;20248;-69
2023/08/28 19:50:33;;;;;;;0.30;0.30;;;;;;;;;;10430361;28;20746;-69
2023/08/28 19:55:34;;;;;;;0.20;0.20;;;;;;;;;;10426189;28;20211;-69
2023/08/28 20:00:35;;;;;;;0.30;0.30;;;;;;;;;;10423485;28;20207;-71
2023/08/28 20:05:37;;;;;;;0.25;0.25;;;;;;;;;;10423046;28;20679;-72
2023/08/28 20:10:38;;;;;;;0.30;0.30;;;;;;;;;;10423564;28;20599;-69
2023/08/28 20:15:39;;;;;;;0.22;0.22;;;;;;;;;;10427329;28;20226;-74
2023/08/28 20:20:41;;;;;;;1.08;0.25;;;;;;;;;;10407885;28;20685;-69
2023/08/28 20:25:42;;;;;;;0.35;0.30;;;;;;;;;;10423124;28;20230;-71
2023/08/28 20:30:43;;;;;;;0.30;0.30;;;;;;;;;;10404088;28;20643;-71
2023/08/28 20:35:44;;;;;;;0.25;0.25;;;;;;;;;;10422948;28;20207;-71
2023/08/28 20:40:49;;;;;;;0.35;0.35;;;;;;;;;;10425086;28;20211;-72
2023/08/28 20:45:56;;;;;;;0.20;0.20;;;;;;;;;;10407500;28;20265;-70
2023/08/28 20:50:58;;;;;;;0.47;0.20;;;;;;;;;;10418849;28;20210;-71
2023/08/28 20:56:00;;;;;;;0.40;0.30;;;;;;;;;;10407836;28;20215;-69
2023/08/28 21:01:01;;;;;;;0.22;0.22;;;;;;;;;;10420880;28;20211;-72
2023/08/28 21:06:03;;;;;;;0.50;0.40;;;;;;;;;;10424738;28;20233;-74
2023/08/28 21:11:04;;;;;;;0.60;0.43;;;;;;;;;;10433069;28;20632;-70
2023/08/28 21:16:05;;;;;;;0.30;0.30;;;;;;;;;;10424440;28;20254;-71
2023/08/28 21:21:06;;;;;;;0.30;0.30;;;;;;;;;;10404435;28;20273;-72
2023/08/28 21:26:07;;;;;;;0.30;0.30;;;;;;;;;;10425205;28;20232;-70
2023/08/28 21:31:08;;;;;;;0.30;0.30;;;;;;;;;;10426103;28;20231;-69
2023/08/28 21:36:09;;;;;;;0.30;0.30;;;;;;;;;;10424807;28;20355;-70
2023/08/28 21:41:11;;;;;;;0.40;0.40;;;;;;;;;;10421005;28;20283;-70
2023/08/28 21:46:12;;;;;;;0.40;0.40;;;;;;;;;;10421827;28;20531;-68
2023/08/28 21:51:13;;;;;;;0.40;0.30;;;;;;;;;;10419028;28;20260;-69
2023/08/28 21:56:33;;;;;;;0.40;0.40;;;;;;;;;;10423433;28;20222;-76
2023/08/28 22:01:53;;;;;;;0.30;0.30;;;;;;;;;;10418392;28;21137;-71
2023/08/28 22:07:12;;;;;;;0.30;0.30;;;;;;;;;;10423179;28;20304;-67
2023/08/28 22:12:34;;;;;;;0.30;0.30;;;;;;;;;;10422302;28;20335;-74
2023/08/28 22:17:35;;;;;;;0.32;0.32;;;;;;;;;;10405108;28;20235;-72
2023/08/28 22:22:36;;;;;;;0.75;0.40;;;;;;;;;;10411254;28;20867;-69
2023/08/28 22:27:37;;;;;;;0.35;0.35;;;;;;;;;;10420462;28;20219;-69
2023/08/28 22:32:39;;;;;;;0.63;0.38;;;;;;;;;;10418233;28;20207;-70
2023/08/28 22:37:40;;;;;;;0.30;0.30;;;;;;;;;;10419795;28;20559;-70
2023/08/28 22:42:41;;;;;;;0.85;0.30;;;;;;;;;;10418461;28;20482;-69
2023/08/28 22:47:43;;;;;;;0.40;0.40;;;;;;;;;;10420873;28;20321;-72
2023/08/28 22:52:44;;;;;;;0.40;0.40;;;;;;;;;;10419593;28;20591;-70
2023/08/28 22:57:45;;;;;;;0.40;0.40;;;;;;;;;;10429495;28;20237;-70
2023/08/28 23:02:49;;;;;;;1.00;0.47;;;;;;;;;;10427937;28;20210;-70
2023/08/28 23:07:50;;;;;;;0.40;0.40;;;;;;;;;;10415001;28;21909;-69
2023/08/28 23:12:51;;;;;;;0.52;0.40;;;;;;;;;;10431729;28;20215;-71
2023/08/28 23:17:52;;;;;;;0.40;0.40;;;;;;;;;;10421197;28;20227;-71
2023/08/28 23:22:53;;;;;;;0.40;0.40;;;;;;;;;;10425852;28;20211;-70
2023/08/28 23:27:54;;;;;;;1.40;0.30;;;;;;;;;;10407426;28;20903;-70
2023/08/28 23:32:56;;;;;;;0.40;0.30;;;;;;;;;;10408599;28;20420;-71
2023/08/28 23:37:57;;;;;;;0.30;0.30;;;;;;;;;;10422794;28;20216;-68
2023/08/28 23:42:58;;;;;;;2.40;0.60;;;;;;;;;;10423864;28;20206;-70
2023/08/28 23:48:00;;;;;;;0.38;0.38;;;;;;;;;;10431775;28;20299;-69
2023/08/28 23:53:01;;;;;;;0.30;0.30;;;;;;;;;;10421907;28;20202;-70
2023/08/28 23:58:02;;;;;;;0.30;0.30;;;;;;;;;;10422132;28;20250;-71
